sensor_id;sensor_type;location;lat;lon;timestamp;P1;durP1;ratioP1;P2;durP2;ratioP2
47856;SDS011;33618;49.972;8.242;2023-11-22T00:01:54;2.28;;;2.05;;
47856;SDS011;33618;49.972;8.242;2023-11-22T00:04:22;2.72;;;1.55;;
47856;SDS011;33618;49.972;8.242;2023-11-22T00:06:49;2.55;;;1.40;;
47856;SDS011;33618;49.972;8.242;2023-11-22T00:09:16;2.65;;;1.60;;
47856;SDS011;33618;49.972;8.242;2023-11-22T00:11:48;3.40;;;2.08;;
47856;SDS011;33618;49.972;8.242;2023-11-22T00:14:40;1.75;;;1.60;;
47856;SDS011;33618;49.972;8.242;2023-11-22T00:17:08;1.23;;;1.13;;
47856;SDS011;33618;49.972;8.242;2023-11-22T00:19:37;1.75;;;1.60;;
47856;SDS011;33618;49.972;8.242;2023-11-22T00:22:05;1.23;;;1.13;;
47856;SDS011;33618;49.972;8.242;2023-11-22T00:24:40;3.08;;;1.65;;
47856;SDS011;33618;49.972;8.242;2023-11-22T00:27:32;1.63;;;1.52;;
47856;SDS011;33618;49.972;8.242;2023-11-22T00:29:59;1.50;;;1.40;;
47856;SDS011;33618;49.972;8.242;2023-11-22T00:32:26;1.45;;;1.35;;
47856;SDS011;33618;49.972;8.242;2023-11-22T00:34:53;1.33;;;1.23;;
47856;SDS011;33618;49.972;8.242;2023-11-22T00:37:21;1.55;;;1.45;;
47856;SDS011;33618;49.972;8.242;2023-11-22T00:40:07;1.45;;;1.10;;
47856;SDS011;33618;49.972;8.242;2023-11-22T00:42:39;1.55;;;1.45;;
47856;SDS011;33618;49.972;8.242;2023-11-22T00:45:10;1.30;;;1.20;;
47856;SDS011;33618;49.972;8.242;2023-11-22T00:47:37;1.92;;;1.45;;
47856;SDS011;33618;49.972;8.242;2023-11-22T00:50:06;2.15;;;1.63;;
47856;SDS011;33618;49.972;8.242;2023-11-22T00:52:34;3.40;;;1.50;;
47856;SDS011;33618;49.972;8.242;2023-11-22T00:55:01;3.95;;;1.52;;
47856;SDS011;33618;49.972;8.242;2023-11-22T00:57:29;1.30;;;1.20;;
47856;SDS011;33618;49.972;8.242;2023-11-22T00:59:57;1.63;;;1.52;;
47856;SDS011;33618;49.972;8.242;2023-11-22T01:02:25;1.63;;;1.50;;
47856;SDS011;33618;49.972;8.242;2023-11-22T01:04:52;1.65;;;1.55;;
47856;SDS011;33618;49.972;8.242;2023-11-22T01:07:19;1.83;;;1.67;;
47856;SDS011;33618;49.972;8.242;2023-11-22T01:09:46;1.30;;;1.20;;
47856;SDS011;33618;49.972;8.242;2023-11-22T01:12:13;3.08;;;1.30;;
47856;SDS011;33618;49.972;8.242;2023-11-22T01:14:40;2.58;;;1.83;;
47856;SDS011;33618;49.972;8.242;2023-11-22T01:17:08;2.13;;;1.85;;
47856;SDS011;33618;49.972;8.242;2023-11-22T01:19:35;2.63;;;1.50;;
47856;SDS011;33618;49.972;8.242;2023-11-22T01:22:04;1.15;;;1.15;;
47856;SDS011;33618;49.972;8.242;2023-11-22T01:24:31;2.45;;;1.58;;
47856;SDS011;33618;49.972;8.242;2023-11-22T01:26:58;1.40;;;1.30;;
47856;SDS011;33618;49.972;8.242;2023-11-22T01:29:25;2.10;;;1.63;;
47856;SDS011;33618;49.972;8.242;2023-11-22T01:31:53;2.10;;;1.60;;
47856;SDS011;33618;49.972;8.242;2023-11-22T01:34:21;3.33;;;2.25;;
47856;SDS011;33618;49.972;8.242;2023-11-22T01:36:51;1.65;;;1.52;;
47856;SDS011;33618;49.972;8.242;2023-11-22T01:39:19;2.17;;;1.80;;
47856;SDS011;33618;49.972;8.242;2023-11-22T01:41:47;2.75;;;1.92;;
47856;SDS011;33618;49.972;8.242;2023-11-22T01:44:16;2.25;;;2.05;;
47856;SDS011;33618;49.972;8.242;2023-11-22T01:46:44;2.13;;;1.92;;
47856;SDS011;33618;49.972;8.242;2023-11-22T01:49:12;1.95;;;1.75;;
47856;SDS011;33618;49.972;8.242;2023-11-22T01:51:40;2.40;;;1.85;;
47856;SDS011;33618;49.972;8.242;2023-11-22T01:54:09;3.53;;;2.17;;
47856;SDS011;33618;49.972;8.242;2023-11-22T01:56:38;3.53;;;2.38;;
47856;SDS011;33618;49.972;8.242;2023-11-22T01:59:06;3.92;;;2.25;;
47856;SDS011;33618;49.972;8.242;2023-11-22T02:01:34;3.25;;;1.80;;
47856;SDS011;33618;49.972;8.242;2023-11-22T02:04:02;2.85;;;2.00;;
47856;SDS011;33618;49.972;8.242;2023-11-22T02:06:29;4.20;;;2.00;;
47856;SDS011;33618;49.972;8.242;2023-11-22T02:08:57;2.47;;;2.17;;
47856;SDS011;33618;49.972;8.242;2023-11-22T02:11:26;3.83;;;2.25;;
47856;SDS011;33618;49.972;8.242;2023-11-22T02:13:54;3.55;;;1.85;;
47856;SDS011;33618;49.972;8.242;2023-11-22T02:16:22;2.40;;;2.20;;
47856;SDS011;33618;49.972;8.242;2023-11-22T02:18:49;2.75;;;1.95;;
47856;SDS011;33618;49.972;8.242;2023-11-22T02:21:17;2.92;;;1.90;;
47856;SDS011;33618;49.972;8.242;2023-11-22T02:23:45;3.00;;;1.92;;
47856;SDS011;33618;49.972;8.242;2023-11-22T02:26:14;6.22;;;1.60;;
47856;SDS011;33618;49.972;8.242;2023-11-22T02:28:45;2.15;;;2.00;;
47856;SDS011;33618;49.972;8.242;2023-11-22T02:31:12;3.65;;;2.10;;
47856;SDS011;33618;49.972;8.242;2023-11-22T02:33:40;1.52;;;1.42;;
47856;SDS011;33618;49.972;8.242;2023-11-22T02:36:09;2.33;;;1.83;;
47856;SDS011;33618;49.972;8.242;2023-11-22T02:38:39;2.90;;;1.73;;
47856;SDS011;33618;49.972;8.242;2023-11-22T02:41:07;3.53;;;2.22;;
47856;SDS011;33618;49.972;8.242;2023-11-22T02:43:35;3.30;;;2.08;;
47856;SDS011;33618;49.972;8.242;2023-11-22T02:46:03;2.25;;;2.00;;
47856;SDS011;33618;49.972;8.242;2023-11-22T02:48:30;2.00;;;1.77;;
47856;SDS011;33618;49.972;8.242;2023-11-22T02:51:01;2.22;;;1.50;;
47856;SDS011;33618;49.972;8.242;2023-11-22T02:53:29;2.72;;;2.05;;
47856;SDS011;33618;49.972;8.242;2023-11-22T02:55:59;2.53;;;1.98;;
47856;SDS011;33618;49.972;8.242;2023-11-22T02:58:28;2.25;;;2.00;;
47856;SDS011;33618;49.972;8.242;2023-11-22T03:00:56;2.40;;;1.67;;
47856;SDS011;33618;49.972;8.242;2023-11-22T03:03:23;2.95;;;1.90;;
47856;SDS011;33618;49.972;8.242;2023-11-22T03:05:51;3.47;;;2.17;;
47856;SDS011;33618;49.972;8.242;2023-11-22T03:08:18;1.98;;;1.63;;
47856;SDS011;33618;49.972;8.242;2023-11-22T03:10:45;1.70;;;1.60;;
47856;SDS011;33618;49.972;8.242;2023-11-22T03:13:12;1.98;;;1.77;;
47856;SDS011;33618;49.972;8.242;2023-11-22T03:15:39;2.05;;;1.75;;
47856;SDS011;33618;49.972;8.242;2023-11-22T03:18:06;1.50;;;1.40;;
47856;SDS011;33618;49.972;8.242;2023-11-22T03:20:33;2.85;;;2.25;;
47856;SDS011;33618;49.972;8.242;2023-11-22T03:23:00;6.50;;;1.65;;
47856;SDS011;33618;49.972;8.242;2023-11-22T03:25:28;2.15;;;1.65;;
47856;SDS011;33618;49.972;8.242;2023-11-22T03:27:56;1.63;;;1.52;;
47856;SDS011;33618;49.972;8.242;2023-11-22T03:30:22;2.05;;;1.80;;
47856;SDS011;33618;49.972;8.242;2023-11-22T03:32:49;2.08;;;1.85;;
47856;SDS011;33618;49.972;8.242;2023-11-22T03:35:16;2.50;;;1.75;;
47856;SDS011;33618;49.972;8.242;2023-11-22T03:37:43;2.17;;;1.83;;
47856;SDS011;33618;49.972;8.242;2023-11-22T03:40:10;1.75;;;1.55;;
47856;SDS011;33618;49.972;8.242;2023-11-22T03:42:37;1.52;;;1.25;;
47856;SDS011;33618;49.972;8.242;2023-11-22T03:45:05;3.10;;;2.22;;
47856;SDS011;33618;49.972;8.242;2023-11-22T03:47:33;2.35;;;2.15;;
47856;SDS011;33618;49.972;8.242;2023-11-22T03:50:00;3.10;;;1.73;;
47856;SDS011;33618;49.972;8.242;2023-11-22T03:52:27;2.20;;;2.00;;
47856;SDS011;33618;49.972;8.242;2023-11-22T03:54:54;2.22;;;1.92;;
47856;SDS011;33618;49.972;8.242;2023-11-22T03:57:21;2.05;;;1.80;;
47856;SDS011;33618;49.972;8.242;2023-11-22T03:59:48;3.45;;;1.92;;
47856;SDS011;33618;49.972;8.242;2023-11-22T04:02:15;4.05;;;2.20;;
47856;SDS011;33618;49.972;8.242;2023-11-22T04:04:42;3.38;;;1.75;;
47856;SDS011;33618;49.972;8.242;2023-11-22T04:07:09;1.55;;;1.45;;
47856;SDS011;33618;49.972;8.242;2023-11-22T04:09:36;2.08;;;1.88;;
47856;SDS011;33618;49.972;8.242;2023-11-22T04:12:02;3.88;;;1.83;;
47856;SDS011;33618;49.972;8.242;2023-11-22T04:14:30;3.10;;;2.00;;
47856;SDS011;33618;49.972;8.242;2023-11-22T04:16:58;4.47;;;1.67;;
47856;SDS011;33618;49.972;8.242;2023-11-22T04:19:25;3.88;;;1.88;;
47856;SDS011;33618;49.972;8.242;2023-11-22T04:21:52;1.52;;;1.42;;
47856;SDS011;33618;49.972;8.242;2023-11-22T04:24:20;1.58;;;1.30;;
47856;SDS011;33618;49.972;8.242;2023-11-22T04:26:47;2.10;;;1.65;;
47856;SDS011;33618;49.972;8.242;2023-11-22T04:29:14;2.17;;;1.45;;
47856;SDS011;33618;49.972;8.242;2023-11-22T04:31:43;2.15;;;1.48;;
47856;SDS011;33618;49.972;8.242;2023-11-22T04:34:10;2.80;;;1.52;;
47856;SDS011;33618;49.972;8.242;2023-11-22T04:36:37;4.10;;;1.48;;
47856;SDS011;33618;49.972;8.242;2023-11-22T04:39:05;2.53;;;1.70;;
47856;SDS011;33618;49.972;8.242;2023-11-22T04:41:34;1.63;;;1.50;;
47856;SDS011;33618;49.972;8.242;2023-11-22T04:44:01;3.05;;;1.20;;
47856;SDS011;33618;49.972;8.242;2023-11-22T04:46:28;2.55;;;1.50;;
47856;SDS011;33618;49.972;8.242;2023-11-22T04:48:55;1.67;;;1.30;;
47856;SDS011;33618;49.972;8.242;2023-11-22T04:51:23;1.25;;;1.10;;
47856;SDS011;33618;49.972;8.242;2023-11-22T04:53:50;2.88;;;1.33;;
47856;SDS011;33618;49.972;8.242;2023-11-22T04:56:17;1.30;;;1.20;;
47856;SDS011;33618;49.972;8.242;2023-11-22T04:58:44;1.67;;;1.58;;
47856;SDS011;33618;49.972;8.242;2023-11-22T05:01:11;2.55;;;1.88;;
47856;SDS011;33618;49.972;8.242;2023-11-22T05:03:39;1.38;;;1.10;;
47856;SDS011;33618;49.972;8.242;2023-11-22T05:06:06;4.55;;;2.10;;
47856;SDS011;33618;49.972;8.242;2023-11-22T05:08:35;1.75;;;1.58;;
47856;SDS011;33618;49.972;8.242;2023-11-22T05:11:03;3.40;;;1.73;;
47856;SDS011;33618;49.972;8.242;2023-11-22T05:13:30;1.67;;;1.58;;
47856;SDS011;33618;49.972;8.242;2023-11-22T05:15:57;2.00;;;1.55;;
47856;SDS011;33618;49.972;8.242;2023-11-22T05:18:24;1.92;;;1.52;;
47856;SDS011;33618;49.972;8.242;2023-11-22T05:20:51;2.13;;;1.70;;
47856;SDS011;33618;49.972;8.242;2023-11-22T05:23:18;2.17;;;1.75;;
47856;SDS011;33618;49.972;8.242;2023-11-22T05:25:45;1.27;;;1.17;;
47856;SDS011;33618;49.972;8.242;2023-11-22T05:28:12;2.60;;;1.50;;
47856;SDS011;33618;49.972;8.242;2023-11-22T05:30:39;1.60;;;1.25;;
47856;SDS011;33618;49.972;8.242;2023-11-22T05:33:07;1.92;;;1.38;;
47856;SDS011;33618;49.972;8.242;2023-11-22T05:35:34;4.90;;;1.92;;
47856;SDS011;33618;49.972;8.242;2023-11-22T05:38:01;1.83;;;1.30;;
47856;SDS011;33618;49.972;8.242;2023-11-22T05:40:28;2.17;;;1.98;;
47856;SDS011;33618;49.972;8.242;2023-11-22T05:42:55;4.63;;;2.30;;
47856;SDS011;33618;49.972;8.242;2023-11-22T05:45:22;2.47;;;1.77;;
47856;SDS011;33618;49.972;8.242;2023-11-22T05:47:50;2.30;;;2.03;;
47856;SDS011;33618;49.972;8.242;2023-11-22T05:50:17;4.93;;;2.47;;
47856;SDS011;33618;49.972;8.242;2023-11-22T05:52:44;1.90;;;1.77;;
47856;SDS011;33618;49.972;8.242;2023-11-22T05:55:12;6.75;;;2.03;;
47856;SDS011;33618;49.972;8.242;2023-11-22T05:57:41;3.22;;;1.95;;
47856;SDS011;33618;49.972;8.242;2023-11-22T06:00:08;3.35;;;2.05;;
47856;SDS011;33618;49.972;8.242;2023-11-22T06:02:35;7.05;;;2.33;;
47856;SDS011;33618;49.972;8.242;2023-11-22T06:05:05;1.75;;;1.65;;
47856;SDS011;33618;49.972;8.242;2023-11-22T06:07:33;1.85;;;1.70;;
47856;SDS011;33618;49.972;8.242;2023-11-22T06:10:00;4.88;;;2.35;;
47856;SDS011;33618;49.972;8.242;2023-11-22T06:12:28;2.75;;;1.90;;
47856;SDS011;33618;49.972;8.242;2023-11-22T06:14:56;2.83;;;1.95;;
47856;SDS011;33618;49.972;8.242;2023-11-22T06:17:23;4.15;;;1.80;;
47856;SDS011;33618;49.972;8.242;2023-11-22T06:19:50;2.53;;;2.15;;
47856;SDS011;33618;49.972;8.242;2023-11-22T06:22:17;2.15;;;1.52;;
47856;SDS011;33618;49.972;8.242;2023-11-22T06:24:46;3.15;;;1.60;;
47856;SDS011;33618;49.972;8.242;2023-11-22T06:27:15;3.42;;;2.08;;
47856;SDS011;33618;49.972;8.242;2023-11-22T06:29:41;2.70;;;1.90;;
47856;SDS011;33618;49.972;8.242;2023-11-22T06:32:10;3.28;;;1.60;;
47856;SDS011;33618;49.972;8.242;2023-11-22T06:34:37;1.80;;;1.70;;
47856;SDS011;33618;49.972;8.242;2023-11-22T06:37:06;2.45;;;1.88;;
47856;SDS011;33618;49.972;8.242;2023-11-22T06:39:34;1.65;;;1.42;;
47856;SDS011;33618;49.972;8.242;2023-11-22T06:42:01;1.60;;;1.27;;
47856;SDS011;33618;49.972;8.242;2023-11-22T06:44:28;2.75;;;1.92;;
47856;SDS011;33618;49.972;8.242;2023-11-22T06:46:55;3.20;;;1.88;;
47856;SDS011;33618;49.972;8.242;2023-11-22T06:49:23;2.03;;;1.77;;
47856;SDS011;33618;49.972;8.242;2023-11-22T06:51:50;2.80;;;2.13;;
47856;SDS011;33618;49.972;8.242;2023-11-22T06:54:18;2.05;;;1.55;;
47856;SDS011;33618;49.972;8.242;2023-11-22T06:56:46;4.40;;;2.15;;
47856;SDS011;33618;49.972;8.242;2023-11-22T06:59:14;2.22;;;1.88;;
47856;SDS011;33618;49.972;8.242;2023-11-22T07:01:41;2.92;;;1.90;;
47856;SDS011;33618;49.972;8.242;2023-11-22T07:04:08;5.90;;;1.60;;
47856;SDS011;33618;49.972;8.242;2023-11-22T07:06:36;1.88;;;1.55;;
47856;SDS011;33618;49.972;8.242;2023-11-22T07:09:04;3.70;;;1.92;;
47856;SDS011;33618;49.972;8.242;2023-11-22T07:11:31;2.53;;;1.80;;
47856;SDS011;33618;49.972;8.242;2023-11-22T07:13:58;1.98;;;1.80;;
47856;SDS011;33618;49.972;8.242;2023-11-22T07:16:25;4.05;;;2.20;;
47856;SDS011;33618;49.972;8.242;2023-11-22T07:18:52;7.10;;;2.35;;
47856;SDS011;33618;49.972;8.242;2023-11-22T07:21:19;3.08;;;1.67;;
47856;SDS011;33618;49.972;8.242;2023-11-22T07:23:47;2.97;;;2.13;;
47856;SDS011;33618;49.972;8.242;2023-11-22T07:26:17;3.50;;;2.15;;
47856;SDS011;33618;49.972;8.242;2023-11-22T07:28:45;2.78;;;1.55;;
47856;SDS011;33618;49.972;8.242;2023-11-22T07:31:12;2.08;;;1.80;;
47856;SDS011;33618;49.972;8.242;2023-11-22T07:33:39;2.38;;;1.63;;
47856;SDS011;33618;49.972;8.242;2023-11-22T07:36:06;2.95;;;1.60;;
47856;SDS011;33618;49.972;8.242;2023-11-22T07:38:34;11.27;;;1.98;;
47856;SDS011;33618;49.972;8.242;2023-11-22T07:41:02;2.40;;;1.58;;
47856;SDS011;33618;49.972;8.242;2023-11-22T07:43:29;2.13;;;1.75;;
47856;SDS011;33618;49.972;8.242;2023-11-22T07:45:56;2.30;;;1.90;;
47856;SDS011;33618;49.972;8.242;2023-11-22T07:48:25;2.85;;;1.77;;
47856;SDS011;33618;49.972;8.242;2023-11-22T07:50:53;2.40;;;1.80;;
47856;SDS011;33618;49.972;8.242;2023-11-22T07:53:20;2.13;;;1.48;;
47856;SDS011;33618;49.972;8.242;2023-11-22T07:55:47;1.40;;;1.30;;
47856;SDS011;33618;49.972;8.242;2023-11-22T07:58:14;1.42;;;1.10;;
47856;SDS011;33618;49.972;8.242;2023-11-22T08:00:42;1.65;;;1.55;;
47856;SDS011;33618;49.972;8.242;2023-11-22T08:03:09;2.65;;;1.75;;
47856;SDS011;33618;49.972;8.242;2023-11-22T08:05:36;2.00;;;1.58;;
47856;SDS011;33618;49.972;8.242;2023-11-22T08:08:06;4.78;;;2.08;;
47856;SDS011;33618;49.972;8.242;2023-11-22T08:10:34;3.08;;;1.67;;
47856;SDS011;33618;49.972;8.242;2023-11-22T08:13:02;1.70;;;1.50;;
47856;SDS011;33618;49.972;8.242;2023-11-22T08:15:29;2.45;;;1.50;;
47856;SDS011;33618;49.972;8.242;2023-11-22T08:17:58;3.25;;;1.50;;
47856;SDS011;33618;49.972;8.242;2023-11-22T08:20:27;6.93;;;1.75;;
47856;SDS011;33618;49.972;8.242;2023-11-22T08:22:54;3.97;;;1.73;;
47856;SDS011;33618;49.972;8.242;2023-11-22T08:25:21;2.20;;;1.70;;
47856;SDS011;33618;49.972;8.242;2023-11-22T08:27:48;1.58;;;1.45;;
47856;SDS011;33618;49.972;8.242;2023-11-22T08:30:15;1.38;;;1.27;;
47856;SDS011;33618;49.972;8.242;2023-11-22T08:32:47;1.45;;;1.35;;
47856;SDS011;33618;49.972;8.242;2023-11-22T08:35:23;1.65;;;1.40;;
47856;SDS011;33618;49.972;8.242;2023-11-22T08:37:51;1.60;;;1.50;;
47856;SDS011;33618;49.972;8.242;2023-11-22T08:40:18;1.88;;;1.38;;
47856;SDS011;33618;49.972;8.242;2023-11-22T08:42:48;2.30;;;1.52;;
47856;SDS011;33618;49.972;8.242;2023-11-22T08:45:15;3.60;;;1.85;;
47856;SDS011;33618;49.972;8.242;2023-11-22T08:47:42;5.05;;;2.13;;
47856;SDS011;33618;49.972;8.242;2023-11-22T08:50:10;5.72;;;1.75;;
47856;SDS011;33618;49.972;8.242;2023-11-22T08:52:41;1.75;;;1.65;;
47856;SDS011;33618;49.972;8.242;2023-11-22T08:55:08;1.50;;;1.40;;
47856;SDS011;33618;49.972;8.242;2023-11-22T08:57:36;2.05;;;1.33;;
47856;SDS011;33618;49.972;8.242;2023-11-22T09:00:03;2.25;;;1.40;;
47856;SDS011;33618;49.972;8.242;2023-11-22T09:02:35;1.63;;;1.45;;
47856;SDS011;33618;49.972;8.242;2023-11-22T09:05:03;1.60;;;1.20;;
47856;SDS011;33618;49.972;8.242;2023-11-22T09:07:34;1.60;;;1.50;;
47856;SDS011;33618;49.972;8.242;2023-11-22T09:10:02;1.83;;;1.65;;
47856;SDS011;33618;49.972;8.242;2023-11-22T09:12:36;1.95;;;1.38;;
47856;SDS011;33618;49.972;8.242;2023-11-22T09:15:08;1.38;;;1.27;;
47856;SDS011;33618;49.972;8.242;2023-11-22T09:17:44;1.23;;;1.20;;
47856;SDS011;33618;49.972;8.242;2023-11-22T09:20:13;1.67;;;1.40;;
47856;SDS011;33618;49.972;8.242;2023-11-22T09:22:42;1.85;;;1.50;;
47856;SDS011;33618;49.972;8.242;2023-11-22T09:25:16;1.98;;;1.65;;
47856;SDS011;33618;49.972;8.242;2023-11-22T09:27:46;1.60;;;1.50;;
47856;SDS011;33618;49.972;8.242;2023-11-22T09:30:15;1.88;;;1.42;;
47856;SDS011;33618;49.972;8.242;2023-11-22T09:33:34;1.60;;;1.50;;
47856;SDS011;33618;49.972;8.242;2023-11-22T09:35:54;5.85;;;1.88;;
47856;SDS011;33618;49.972;8.242;2023-11-22T09:38:20;1.60;;;1.50;;
47856;SDS011;33618;49.972;8.242;2023-11-22T09:40:48;2.92;;;1.30;;
47856;SDS011;33618;49.972;8.242;2023-11-22T09:43:17;2.88;;;1.52;;
47856;SDS011;33618;49.972;8.242;2023-11-22T09:45:50;2.47;;;1.50;;
47856;SDS011;33618;49.972;8.242;2023-11-22T09:48:23;1.55;;;1.45;;
47856;SDS011;33618;49.972;8.242;2023-11-22T09:53:32;1.67;;;1.25;;
47856;SDS011;33618;49.972;8.242;2023-11-22T09:56:01;2.33;;;1.63;;
47856;SDS011;33618;49.972;8.242;2023-11-22T09:58:30;2.78;;;1.48;;
47856;SDS011;33618;49.972;8.242;2023-11-22T10:00:59;2.80;;;1.83;;
47856;SDS011;33618;49.972;8.242;2023-11-22T10:03:27;1.73;;;1.52;;
47856;SDS011;33618;49.972;8.242;2023-11-22T10:05:57;9.52;;;1.90;;
47856;SDS011;33618;49.972;8.242;2023-11-22T10:08:25;7.35;;;4.03;;
47856;SDS011;33618;49.972;8.242;2023-11-22T10:10:57;3.20;;;1.50;;
47856;SDS011;33618;49.972;8.242;2023-11-22T10:13:24;1.75;;;1.42;;
47856;SDS011;33618;49.972;8.242;2023-11-22T10:15:52;2.17;;;1.90;;
47856;SDS011;33618;49.972;8.242;2023-11-22T10:18:20;2.75;;;1.83;;
47856;SDS011;33618;49.972;8.242;2023-11-22T10:20:48;1.48;;;1.38;;
47856;SDS011;33618;49.972;8.242;2023-11-22T10:23:18;1.80;;;1.70;;
47856;SDS011;33618;49.972;8.242;2023-11-22T10:25:51;4.10;;;1.98;;
47856;SDS011;33618;49.972;8.242;2023-11-22T10:28:19;1.50;;;1.40;;
47856;SDS011;33618;49.972;8.242;2023-11-22T10:30:48;2.40;;;1.75;;
47856;SDS011;33618;49.972;8.242;2023-11-22T10:33:18;1.98;;;1.60;;
47856;SDS011;33618;49.972;8.242;2023-11-22T10:35:50;2.13;;;1.80;;
47856;SDS011;33618;49.972;8.242;2023-11-22T10:38:20;4.80;;;1.80;;
47856;SDS011;33618;49.972;8.242;2023-11-22T10:40:47;2.78;;;1.63;;
47856;SDS011;33618;49.972;8.242;2023-11-22T10:43:15;2.38;;;1.83;;
47856;SDS011;33618;49.972;8.242;2023-11-22T10:45:43;3.92;;;2.00;;
47856;SDS011;33618;49.972;8.242;2023-11-22T10:48:17;1.90;;;1.60;;
47856;SDS011;33618;49.972;8.242;2023-11-22T10:50:44;2.78;;;1.73;;
47856;SDS011;33618;49.972;8.242;2023-11-22T10:53:12;1.77;;;1.30;;
47856;SDS011;33618;49.972;8.242;2023-11-22T10:55:45;2.97;;;1.95;;
47856;SDS011;33618;49.972;8.242;2023-11-22T10:58:16;3.20;;;1.90;;
47856;SDS011;33618;49.972;8.242;2023-11-22T11:00:46;1.92;;;1.80;;
47856;SDS011;33618;49.972;8.242;2023-11-22T11:03:14;2.97;;;2.67;;
47856;SDS011;33618;49.972;8.242;2023-11-22T11:06:07;6.25;;;4.93;;
47856;SDS011;33618;49.972;8.242;2023-11-22T11:08:34;1.90;;;1.80;;
47856;SDS011;33618;49.972;8.242;2023-11-22T11:11:04;2.80;;;2.60;;
47856;SDS011;33618;49.972;8.242;2023-11-22T11:13:32;2.88;;;2.67;;
47856;SDS011;33618;49.972;8.242;2023-11-22T11:15:59;3.40;;;2.30;;
47856;SDS011;33618;49.972;8.242;2023-11-22T11:18:27;4.80;;;3.58;;
47856;SDS011;33618;49.972;8.242;2023-11-22T11:20:55;2.78;;;2.22;;
47856;SDS011;33618;49.972;8.242;2023-11-22T11:23:25;2.92;;;2.58;;
47856;SDS011;33618;49.972;8.242;2023-11-22T11:25:54;2.72;;;2.40;;
47856;SDS011;33618;49.972;8.242;2023-11-22T11:28:23;2.83;;;2.63;;
47856;SDS011;33618;49.972;8.242;2023-11-22T11:30:54;2.70;;;2.50;;
47856;SDS011;33618;49.972;8.242;2023-11-22T11:33:32;3.00;;;2.80;;
47856;SDS011;33618;49.972;8.242;2023-11-22T11:36:03;3.00;;;2.70;;
47856;SDS011;33618;49.972;8.242;2023-11-22T11:38:31;2.72;;;2.53;;
47856;SDS011;33618;49.972;8.242;2023-11-22T11:41:10;2.75;;;2.55;;
47856;SDS011;33618;49.972;8.242;2023-11-22T11:43:40;3.45;;;2.90;;
47856;SDS011;33618;49.972;8.242;2023-11-22T11:46:07;2.92;;;2.72;;
47856;SDS011;33618;49.972;8.242;2023-11-22T11:48:36;3.10;;;2.80;;
47856;SDS011;33618;49.972;8.242;2023-11-22T11:51:03;3.60;;;2.75;;
47856;SDS011;33618;49.972;8.242;2023-11-22T11:53:30;4.00;;;2.80;;
47856;SDS011;33618;49.972;8.242;2023-11-22T11:55:57;3.10;;;2.90;;
47856;SDS011;33618;49.972;8.242;2023-11-22T11:58:25;2.88;;;2.67;;
47856;SDS011;33618;49.972;8.242;2023-11-22T12:00:52;3.65;;;2.90;;
47856;SDS011;33618;49.972;8.242;2023-11-22T12:03:21;3.15;;;2.60;;
47856;SDS011;33618;49.972;8.242;2023-11-22T12:05:49;3.33;;;2.92;;
47856;SDS011;33618;49.972;8.242;2023-11-22T12:08:16;3.63;;;2.28;;
47856;SDS011;33618;49.972;8.242;2023-11-22T12:10:45;3.13;;;2.83;;
47856;SDS011;33618;49.972;8.242;2023-11-22T12:13:20;3.10;;;2.75;;
47856;SDS011;33618;49.972;8.242;2023-11-22T12:15:47;3.47;;;2.53;;
47856;SDS011;33618;49.972;8.242;2023-11-22T12:18:14;3.10;;;2.90;;
47856;SDS011;33618;49.972;8.242;2023-11-22T12:20:42;3.20;;;2.90;;
47856;SDS011;33618;49.972;8.242;2023-11-22T12:23:24;3.10;;;2.72;;
47856;SDS011;33618;49.972;8.242;2023-11-22T12:25:56;4.10;;;2.97;;
47856;SDS011;33618;49.972;8.242;2023-11-22T12:28:27;3.45;;;3.15;;
47856;SDS011;33618;49.972;8.242;2023-11-22T12:30:55;3.40;;;3.08;;
47856;SDS011;33618;49.972;8.242;2023-11-22T12:33:32;2.97;;;2.67;;
47856;SDS011;33618;49.972;8.242;2023-11-22T12:36:00;2.60;;;2.40;;
47856;SDS011;33618;49.972;8.242;2023-11-22T12:38:27;4.13;;;3.30;;
47856;SDS011;33618;49.972;8.242;2023-11-22T12:40:59;3.47;;;3.17;;
47856;SDS011;33618;49.972;8.242;2023-11-22T12:43:25;3.90;;;2.60;;
47856;SDS011;33618;49.972;8.242;2023-11-22T12:46:03;3.28;;;2.97;;
47856;SDS011;33618;49.972;8.242;2023-11-22T12:48:33;2.83;;;2.40;;
47856;SDS011;33618;49.972;8.242;2023-11-22T12:51:02;2.72;;;2.25;;
47856;SDS011;33618;49.972;8.242;2023-11-22T12:53:29;4.38;;;3.45;;
47856;SDS011;33618;49.972;8.242;2023-11-22T12:55:56;5.57;;;3.33;;
47856;SDS011;33618;49.972;8.242;2023-11-22T12:58:24;2.17;;;2.05;;
47856;SDS011;33618;49.972;8.242;2023-11-22T13:00:53;3.00;;;2.80;;
47856;SDS011;33618;49.972;8.242;2023-11-22T13:03:25;4.15;;;2.97;;
47856;SDS011;33618;49.972;8.242;2023-11-22T13:05:52;3.15;;;2.83;;
47856;SDS011;33618;49.972;8.242;2023-11-22T13:08:20;2.88;;;2.67;;
47856;SDS011;33618;49.972;8.242;2023-11-22T13:10:49;2.72;;;2.53;;
47856;SDS011;33618;49.972;8.242;2023-11-22T13:13:26;3.15;;;2.95;;
47856;SDS011;33618;49.972;8.242;2023-11-22T13:15:54;3.38;;;3.17;;
47856;SDS011;33618;49.972;8.242;2023-11-22T13:18:21;6.90;;;3.40;;
47856;SDS011;33618;49.972;8.242;2023-11-22T13:20:48;8.38;;;3.80;;
47856;SDS011;33618;49.972;8.242;2023-11-22T13:23:16;6.38;;;3.63;;
47856;SDS011;33618;49.972;8.242;2023-11-22T13:25:44;3.75;;;2.95;;
47856;SDS011;33618;49.972;8.242;2023-11-22T13:28:12;3.85;;;2.90;;
47856;SDS011;33618;49.972;8.242;2023-11-22T13:30:43;3.28;;;2.85;;
47856;SDS011;33618;49.972;8.242;2023-11-22T13:33:10;3.17;;;2.88;;
47856;SDS011;33618;49.972;8.242;2023-11-22T13:35:38;3.40;;;3.10;;
47856;SDS011;33618;49.972;8.242;2023-11-22T13:38:05;3.53;;;3.22;;
47856;SDS011;33618;49.972;8.242;2023-11-22T13:40:37;3.13;;;2.85;;
47856;SDS011;33618;49.972;8.242;2023-11-22T13:43:06;3.53;;;3.20;;
47856;SDS011;33618;49.972;8.242;2023-11-22T13:45:34;4.88;;;3.30;;
47856;SDS011;33618;49.972;8.242;2023-11-22T13:48:04;3.33;;;3.03;;
47856;SDS011;33618;49.972;8.242;2023-11-22T13:50:33;3.58;;;2.65;;
47856;SDS011;33618;49.972;8.242;2023-11-22T13:53:01;4.00;;;3.20;;
47856;SDS011;33618;49.972;8.242;2023-11-22T13:55:30;3.60;;;3.30;;
47856;SDS011;33618;49.972;8.242;2023-11-22T13:57:58;3.33;;;3.05;;
47856;SDS011;33618;49.972;8.242;2023-11-22T14:00:29;3.38;;;3.08;;
47856;SDS011;33618;49.972;8.242;2023-11-22T14:03:01;3.72;;;3.30;;
47856;SDS011;33618;49.972;8.242;2023-11-22T14:05:35;5.38;;;3.28;;
47856;SDS011;33618;49.972;8.242;2023-11-22T14:08:05;3.35;;;3.05;;
47856;SDS011;33618;49.972;8.242;2023-11-22T14:10:34;3.20;;;2.90;;
47856;SDS011;33618;49.972;8.242;2023-11-22T14:13:01;3.47;;;3.17;;
47856;SDS011;33618;49.972;8.242;2023-11-22T14:15:30;3.42;;;3.13;;
47856;SDS011;33618;49.972;8.242;2023-11-22T14:17:58;2.63;;;2.42;;
47856;SDS011;33618;49.972;8.242;2023-11-22T14:20:25;5.00;;;3.70;;
47856;SDS011;33618;49.972;8.242;2023-11-22T14:22:52;2.95;;;2.70;;
47856;SDS011;33618;49.972;8.242;2023-11-22T14:25:19;3.03;;;2.50;;
47856;SDS011;33618;49.972;8.242;2023-11-22T14:27:47;4.05;;;3.35;;
47856;SDS011;33618;49.972;8.242;2023-11-22T14:30:19;2.85;;;2.55;;
47856;SDS011;33618;49.972;8.242;2023-11-22T14:32:47;3.10;;;2.58;;
47856;SDS011;33618;49.972;8.242;2023-11-22T14:35:17;3.63;;;2.75;;
47856;SDS011;33618;49.972;8.242;2023-11-22T14:37:44;3.05;;;2.85;;
47856;SDS011;33618;49.972;8.242;2023-11-22T14:40:12;3.40;;;2.97;;
47856;SDS011;33618;49.972;8.242;2023-11-22T14:42:43;3.20;;;3.00;;
47856;SDS011;33618;49.972;8.242;2023-11-22T14:45:19;2.72;;;2.28;;
47856;SDS011;33618;49.972;8.242;2023-11-22T14:47:46;3.20;;;2.33;;
47856;SDS011;33618;49.972;8.242;2023-11-22T14:50:14;3.50;;;3.20;;
47856;SDS011;33618;49.972;8.242;2023-11-22T14:52:42;3.50;;;3.20;;
47856;SDS011;33618;49.972;8.242;2023-11-22T14:55:10;2.80;;;2.50;;
47856;SDS011;33618;49.972;8.242;2023-11-22T14:57:38;4.15;;;2.97;;
47856;SDS011;33618;49.972;8.242;2023-11-22T15:00:06;4.60;;;2.10;;